Time;durP1;ratioP1;P1;durP2;ratioP2;P2;SDS_P1;SDS_P2;PMS_P1;PMS_P2;Temp;Humidity;BMP_temperature;BMP_pressure;BME280_temperature;BME280_humidity;BME280_pressure;Samples;Min_cycle;Max_cycle;Signal;HPM_P1;HPM_P2
2022/08/31 00:04:30;;;;;;;5.15;0.90;;;18.60;60.20;;;;;;9180673;19;20021;-67
2022/08/31 00:07:36;;;;;;;2.88;0.90;;;18.50;59.50;;;;;;9175917;19;20018;-67
2022/08/31 00:10:45;;;;;;;1.55;1.08;;;18.50;59.50;;;;;;9181101;19;20018;-68
2022/08/31 00:13:53;;;;;;;2.60;1.10;;;18.50;59.60;;;;;;9180911;19;20021;-68
2022/08/31 00:16:59;;;;;;;3.83;1.02;;;18.40;59.50;;;;;;9179421;19;20019;-66
2022/08/31 00:20:05;;;;;;;2.20;0.82;;;18.40;59.50;;;;;;9179774;19;20014;-68
2022/08/31 00:23:13;;;;;;;1.65;0.95;;;18.40;59.60;;;;;;9178540;19;20026;-68
2022/08/31 00:26:19;;;;;;;2.83;1.40;;;18.30;59.50;;;;;;9180120;19;20015;-67
2022/08/31 00:29:27;;;;;;;1.65;1.10;;;18.30;59.50;;;;;;9179351;19;20034;-67
2022/08/31 00:32:32;;;;;;;1.58;0.90;;;18.30;59.50;;;;;;9179766;19;20022;-68
2022/08/31 00:35:40;;;;;;;4.95;0.95;;;18.20;59.40;;;;;;9177492;19;20021;-66
2022/08/31 00:38:47;;;;;;;2.15;0.82;;;18.20;59.40;;;;;;9179761;19;20022;-68
2022/08/31 00:41:52;;;;;;;3.25;0.93;;;18.20;59.40;;;;;;9178198;19;20485;-67
2022/08/31 00:45:00;;;;;;;3.35;1.10;;;18.20;59.40;;;;;;9180015;19;20015;-67
2022/08/31 00:48:06;;;;;;;4.53;1.10;;;18.10;59.40;;;;;;9181117;19;20021;-67
2022/08/31 00:51:11;;;;;;;6.00;0.80;;;18.10;59.40;;;;;;9189063;19;20018;-67
2022/08/31 00:54:28;;;;;;;5.45;1.05;;;18.10;59.30;;;;;;9187657;19;20033;-68
2022/08/31 00:57:37;;;;;;;0.63;0.63;;;18.10;59.30;;;;;;9188569;19;20026;-67
2022/08/31 01:00:45;;;;;;;2.80;0.60;;;18.00;59.30;;;;;;9188570;19;20022;-67
2022/08/31 01:03:51;;;;;;;2.33;0.80;;;18.00;59.30;;;;;;9186630;19;20015;-68
2022/08/31 01:06:56;;;;;;;1.95;0.73;;;18.00;59.20;;;;;;9188366;19;20010;-67
2022/08/31 01:10:02;;;;;;;1.17;0.73;;;18.00;59.20;;;;;;9183943;19;20022;-68
2022/08/31 01:13:08;;;;;;;1.75;0.93;;;17.90;59.20;;;;;;9187641;19;20018;-67
2022/08/31 01:16:21;;;;;;;1.90;0.80;;;17.90;59.10;;;;;;9184481;19;20010;-67
2022/08/31 01:19:31;;;;;;;2.60;0.60;;;17.90;59.10;;;;;;9186848;19;20015;-69
2022/08/31 01:22:43;;;;;;;0.68;0.60;;;17.80;59.00;;;;;;9187559;19;20015;-67
2022/08/31 01:25:52;;;;;;;2.10;0.77;;;17.80;59.00;;;;;;9187712;19;20026;-67
2022/08/31 01:29:00;;;;;;;1.60;0.70;;;17.80;59.00;;;;;;9185663;19;20022;-67
2022/08/31 01:32:06;;;;;;;2.20;0.70;;;17.80;59.00;;;;;;9186925;19;20015;-67
2022/08/31 01:35:11;;;;;;;4.63;1.35;;;17.80;59.00;;;;;;9185022;19;20472;-68
2022/08/31 01:38:16;;;;;;;1.10;0.75;;;17.70;58.90;;;;;;9187218;19;20467;-67
2022/08/31 01:41:24;;;;;;;1.02;0.73;;;17.70;58.90;;;;;;9181894;19;20014;-68
2022/08/31 01:44:30;;;;;;;1.35;0.70;;;17.70;58.90;;;;;;9186387;19;20034;-67
2022/08/31 01:47:35;;;;;;;2.78;0.80;;;17.60;58.80;;;;;;9184138;19;20017;-67
2022/08/31 01:50:40;;;;;;;3.85;0.93;;;17.60;58.90;;;;;;9184685;19;20019;-67
2022/08/31 01:53:48;;;;;;;3.35;1.00;;;17.60;58.90;;;;;;9185849;19;20010;-69
2022/08/31 01:56:56;;;;;;;1.75;0.93;;;17.60;58.90;;;;;;9184638;19;20038;-67
2022/08/31 02:00:16;;;;;;;1.98;0.70;;;17.50;58.90;;;;;;9180378;19;20030;-68
2022/08/31 02:03:23;;;;;;;1.88;0.90;;;17.50;58.80;;;;;;9184044;19;20010;-68
2022/08/31 02:06:28;;;;;;;1.02;0.70;;;17.50;58.90;;;;;;9186519;19;20549;-67
2022/08/31 02:09:33;;;;;;;5.28;0.90;;;17.40;58.80;;;;;;9181656;19;20018;-68
2022/08/31 02:12:41;;;;;;;1.13;0.77;;;17.30;58.80;;;;;;9185146;19;20116;-69
2022/08/31 02:15:46;;;;;;;1.77;0.73;;;17.30;58.80;;;;;;9183369;19;20014;-67
2022/08/31 02:18:52;;;;;;;3.97;0.95;;;17.30;58.80;;;;;;9184132;19;20015;-68
2022/08/31 02:21:58;;;;;;;2.60;0.70;;;17.20;58.70;;;;;;9182243;19;20037;-65
2022/08/31 02:25:04;;;;;;;2.40;0.70;;;17.20;58.70;;;;;;9184268;19;20464;-67
2022/08/31 02:28:17;;;;;;;0.70;0.60;;;17.10;58.70;;;;;;9183558;19;20008;-68
2022/08/31 02:31:22;;;;;;;4.90;0.85;;;17.10;58.70;;;;;;9184850;19;20374;-67
2022/08/31 02:34:34;;;;;;;1.40;0.80;;;17.00;58.70;;;;;;9182742;19;20022;-68
2022/08/31 02:37:39;;;;;;;2.50;0.65;;;17.00;58.80;;;;;;9184944;19;20018;-67
2022/08/31 02:40:45;;;;;;;1.02;0.70;;;17.00;58.80;;;;;;9180488;19;20019;-68
2022/08/31 02:43:52;;;;;;;0.88;0.70;;;16.90;58.70;;;;;;9185341;19;20015;-68
2022/08/31 02:46:58;;;;;;;1.58;0.70;;;16.90;58.70;;;;;;9183023;19;20113;-67
2022/08/31 02:50:18;;;;;;;3.83;0.80;;;16.90;58.70;;;;;;9183819;19;20031;-70
2022/08/31 02:53:25;;;;;;;3.15;0.80;;;16.80;58.60;;;;;;9181345;19;20072;-68
2022/08/31 02:56:31;;;;;;;5.03;1.02;;;16.80;58.60;;;;;;9179201;19;20007;-68
2022/08/31 02:59:39;;;;;;;2.28;0.60;;;16.80;58.60;;;;;;9181944;19;20023;-68
2022/08/31 03:02:45;;;;;;;1.60;0.70;;;16.70;58.60;;;;;;9181380;19;20015;-67
2022/08/31 03:05:51;;;;;;;4.85;0.65;;;16.70;58.50;;;;;;9181748;19;20356;-66
2022/08/31 03:08:56;;;;;;;1.27;0.73;;;16.70;58.50;;;;;;9179240;19;20019;-68
2022/08/31 03:12:01;;;;;;;2.80;0.60;;;16.70;58.50;;;;;;9180897;19;20011;-67
2022/08/31 03:15:13;;;;;;;1.90;0.60;;;16.70;58.40;;;;;;9180543;19;20089;-66
2022/08/31 03:18:18;;;;;;;0.88;0.70;;;16.60;58.40;;;;;;9180983;19;20060;-68
2022/08/31 03:21:23;;;;;;;1.33;0.57;;;16.60;58.40;;;;;;9183703;19;20025;-68
2022/08/31 03:24:30;;;;;;;1.13;0.93;;;16.60;58.40;;;;;;9181548;19;20017;-66
2022/08/31 03:27:36;;;;;;;1.48;0.70;;;16.50;58.30;;;;;;9180685;19;20027;-68
2022/08/31 03:30:44;;;;;;;1.42;0.50;;;16.50;58.30;;;;;;9180631;19;20022;-68
2022/08/31 03:33:49;;;;;;;2.35;0.70;;;16.50;58.20;;;;;;9180664;19;20035;-67
2022/08/31 03:36:54;;;;;;;0.32;0.30;;;16.50;58.20;;;;;;9181004;19;20014;-67
2022/08/31 03:39:59;;;;;;;1.33;0.50;;;16.40;58.20;;;;;;9181884;19;20018;-66
2022/08/31 03:43:09;;;;;;;2.63;0.50;;;16.40;58.20;;;;;;9180006;19;20448;-66
2022/08/31 03:46:20;;;;;;;0.95;0.60;;;16.30;58.10;;;;;;9180204;19;20511;-66
2022/08/31 03:49:26;;;;;;;1.95;0.80;;;16.30;58.10;;;;;;9181121;19;20365;-65
2022/08/31 03:52:49;;;;;;;1.33;0.30;;;16.30;58.00;;;;;;9178554;19;20022;-68
2022/08/31 03:56:00;;;;;;;5.57;0.60;;;16.30;58.00;;;;;;9179004;19;20357;-65
2022/08/31 03:59:08;;;;;;;2.53;0.60;;;16.20;58.00;;;;;;9179623;19;20026;-66
2022/08/31 04:02:34;;;;;;;1.33;0.57;;;16.20;58.00;;;;;;9181048;19;20011;-66
2022/08/31 04:06:00;;;;;;;1.10;0.60;;;16.20;58.00;;;;;;9181198;19;20042;-68
2022/08/31 04:09:37;;;;;;;0.82;0.50;;;16.20;57.90;;;;;;9174072;19;20018;-68
2022/08/31 04:13:02;;;;;;;1.45;0.70;;;16.10;57.90;;;;;;9177754;19;20344;-66
2022/08/31 04:16:25;;;;;;;0.30;0.30;;;16.10;57.90;;;;;;9178326;19;20393;-68
2022/08/31 04:19:51;;;;;;;1.02;0.60;;;16.00;57.90;;;;;;9181495;19;20015;-65
2022/08/31 04:23:18;;;;;;;1.75;0.43;;;16.00;57.90;;;;;;9184814;19;20018;-66
2022/08/31 04:26:29;;;;;;;2.95;0.55;;;15.90;57.90;;;;;;9195817;19;20010;-66
2022/08/31 04:29:36;;;;;;;3.03;0.55;;;15.90;57.90;;;;;;9196088;19;20923;-68
2022/08/31 04:32:41;;;;;;;1.23;0.50;;;15.80;57.90;;;;;;9197665;19;20360;-67
2022/08/31 04:35:49;;;;;;;0.55;0.50;;;15.80;58.00;;;;;;9197235;19;20024;-68
2022/08/31 04:38:57;;;;;;;0.73;0.43;;;15.70;58.00;;;;;;9195557;19;20650;-68
2022/08/31 04:42:04;;;;;;;2.22;0.60;;;15.70;58.00;;;;;;9195887;19;20381;-66
2022/08/31 04:45:11;;;;;;;4.15;0.68;;;15.70;58.00;;;;;;9195666;19;20026;-68
2022/08/31 04:48:17;;;;;;;1.48;0.70;;;15.60;58.00;;;;;;9194401;19;20022;-67
2022/08/31 04:51:26;;;;;;;0.70;0.50;;;15.60;58.00;;;;;;9196290;19;20014;-66
2022/08/31 04:54:32;;;;;;;3.00;0.60;;;15.50;58.10;;;;;;9197557;19;20700;-67
2022/08/31 04:57:39;;;;;;;1.38;1.05;;;15.50;58.10;;;;;;9193210;19;20501;-67
2022/08/31 05:00:45;;;;;;;1.48;0.60;;;15.50;58.20;;;;;;9195420;19;20022;-66
2022/08/31 05:04:01;;;;;;;1.63;0.50;;;15.50;58.30;;;;;;9195277;19;20010;-67
2022/08/31 05:07:09;;;;;;;1.90;0.90;;;15.40;58.30;;;;;;9194448;19;20022;-66
2022/08/31 05:10:14;;;;;;;6.80;0.85;;;15.40;58.40;;;;;;9191204;19;20028;-67
2022/08/31 05:13:19;;;;;;;3.42;0.80;;;15.30;58.40;;;;;;9195147;19;20551;-70
2022/08/31 05:16:25;;;;;;;6.38;0.75;;;15.30;58.50;;;;;;9192788;19;20047;-68
2022/08/31 05:19:30;;;;;;;2.72;0.93;;;15.20;58.60;;;;;;9194648;19;20021;-67
2022/08/31 05:22:38;;;;;;;2.38;0.95;;;15.20;58.70;;;;;;9194350;19;20522;-67
2022/08/31 05:25:43;;;;;;;1.58;0.82;;;15.20;58.80;;;;;;9194605;19;20429;-68
2022/08/31 05:28:50;;;;;;;2.20;0.90;;;15.20;58.90;;;;;;9194413;19;20014;-67
2022/08/31 05:31:55;;;;;;;1.27;0.82;;;15.10;58.90;;;;;;9193099;19;20111;-68
2022/08/31 05:35:00;;;;;;;1.52;0.93;;;15.10;59.00;;;;;;9187795;19;20022;-68
2022/08/31 05:38:08;;;;;;;1.15;0.98;;;15.10;59.10;;;;;;9182345;19;20052;-67
2022/08/31 05:41:13;;;;;;;2.10;0.80;;;15.10;59.20;;;;;;9184162;19;20026;-67
2022/08/31 05:44:19;;;;;;;2.80;0.90;;;15.00;59.20;;;;;;9184820;19;20029;-67
2022/08/31 05:47:27;;;;;;;1.60;0.82;;;15.00;59.30;;;;;;9184949;19;20010;-67
2022/08/31 05:50:33;;;;;;;1.38;0.75;;;15.00;59.40;;;;;;9184275;19;20014;-67
2022/08/31 05:53:42;;;;;;;4.72;0.98;;;15.00;59.50;;;;;;9186626;19;20025;-67
2022/08/31 05:56:48;;;;;;;1.75;0.95;;;14.90;59.60;;;;;;9182642;19;20023;-67
2022/08/31 05:59:53;;;;;;;2.75;0.60;;;14.90;59.70;;;;;;9183931;19;20018;-67
2022/08/31 06:02:58;;;;;;;3.65;1.08;;;14.90;59.70;;;;;;9181004;19;20022;-68
2022/08/31 06:06:04;;;;;;;1.85;1.25;;;14.80;59.80;;;;;;9183133;19;20048;-67
2022/08/31 06:09:11;;;;;;;1.38;0.88;;;14.80;59.90;;;;;;9179734;19;20058;-67
2022/08/31 06:12:19;;;;;;;5.00;1.20;;;14.80;60.00;;;;;;9180068;19;20498;-67
2022/08/31 06:15:24;;;;;;;1.35;0.93;;;14.80;60.00;;;;;;9175493;19;20019;-67
2022/08/31 06:18:29;;;;;;;9.43;1.60;;;14.80;60.10;;;;;;9173837;19;20017;-67
2022/08/31 06:21:37;;;;;;;1.30;0.63;;;14.80;60.20;;;;;;9176113;19;20018;-67
2022/08/31 06:24:46;;;;;;;3.83;1.25;;;14.80;60.40;;;;;;9179513;19;20025;-67
2022/08/31 06:27:55;;;;;;;2.10;0.90;;;14.80;60.50;;;;;;9175648;19;20101;-68
2022/08/31 06:31:04;;;;;;;1.92;1.10;;;14.80;60.50;;;;;;9182814;19;20033;-67
2022/08/31 06:34:10;;;;;;;1.50;1.02;;;14.80;60.60;;;;;;9177963;19;20029;-68
2022/08/31 06:37:48;;;;;;;2.58;1.35;;;14.80;60.70;;;;;;9177261;19;20027;-68
2022/08/31 06:41:17;;;;;;;1.33;1.00;;;14.80;60.70;;;;;;9176397;19;20018;-67
2022/08/31 06:44:57;;;;;;;;;;;14.90;60.90;;;;;;9183500;19;20006;-69
2022/08/31 06:48:20;;;;;;;4.68;1.23;;;14.90;60.80;;;;;;9181929;19;19922;-68
2022/08/31 06:51:26;;;;;;;7.82;1.20;;;15.00;60.80;;;;;;9181255;19;20078;-69
2022/08/31 06:54:32;;;;;;;1.73;0.88;;;15.00;60.90;;;;;;9181534;19;20007;-66
2022/08/31 06:57:58;;;;;;;1.35;0.90;;;15.20;61.10;;;;;;9179152;19;20022;-67
2022/08/31 07:01:31;;;;;;;4.68;1.10;;;15.30;61.20;;;;;;9180910;19;20015;-67
2022/08/31 07:04:56;;;;;;;2.45;1.08;;;15.40;61.20;;;;;;9180593;19;20018;-67
2022/08/31 07:08:01;;;;;;;5.55;1.30;;;15.50;61.20;;;;;;9177128;19;20024;-68
2022/08/31 07:11:11;;;;;;;1.88;1.00;;;15.60;61.20;;;;;;9181483;19;20021;-68
2022/08/31 07:14:23;;;;;;;8.73;1.00;;;15.70;61.20;;;;;;9180770;19;20022;-70
2022/08/31 07:17:29;;;;;;;2.25;1.17;;;15.80;61.30;;;;;;9179590;19;20014;-68
2022/08/31 07:20:34;;;;;;;1.30;1.00;;;15.90;61.20;;;;;;9180779;19;20019;-69
2022/08/31 07:23:40;;;;;;;3.25;1.20;;;16.00;61.30;;;;;;9179744;19;20518;-67
2022/08/31 07:26:51;;;;;;;1.48;0.90;;;16.00;61.20;;;;;;9180415;19;20056;-68
2022/08/31 07:30:08;;;;;;;5.55;1.48;;;16.20;61.40;;;;;;9179350;19;20018;-68
2022/08/31 07:33:15;;;;;;;4.88;1.40;;;16.30;61.40;;;;;;9179458;19;20018;-68
2022/08/31 07:36:27;;;;;;;2.83;1.13;;;16.30;61.30;;;;;;9180162;19;20019;-69
2022/08/31 07:42:54;;;;;;;3.75;1.42;;;16.60;61.40;;;;;;9179375;19;20023;-65
2022/08/31 07:46:02;;;;;;;4.10;1.80;;;16.80;61.40;;;;;;9176605;19;20354;-69
2022/08/31 07:49:11;;;;;;;2.88;1.38;;;16.90;61.30;;;;;;9173514;19;20018;-68
2022/08/31 07:52:33;;;;;;;1.48;0.75;;;17.00;61.30;;;;;;9174850;19;20027;-69
2022/08/31 07:56:00;;;;;;;3.10;1.00;;;17.10;61.20;;;;;;9174219;19;20110;-67
2022/08/31 07:59:13;;;;;;;4.15;1.00;;;17.20;61.20;;;;;;9163461;19;20007;-68
2022/08/31 08:02:23;;;;;;;6.03;1.25;;;17.30;61.10;;;;;;9172567;19;20025;-68
2022/08/31 08:05:30;;;;;;;3.28;0.90;;;17.40;61.10;;;;;;9172183;19;20420;-67
2022/08/31 08:09:10;;;;;;;1.40;0.90;;;17.50;61.00;;;;;;9167602;19;20011;-68
2022/08/31 08:13:02;;;;;;;6.32;1.33;;;17.70;61.00;;;;;;9171210;19;20456;-68
2022/08/31 08:16:29;;;;;;;1.10;1.00;;;17.80;61.60;;;;;;9174447;19;20022;-69
2022/08/31 08:19:47;;;;;;;1.75;0.80;;;17.90;60.80;;;;;;9174439;19;20018;-67
2022/08/31 08:22:53;;;;;;;3.25;1.00;;;18.10;60.90;;;;;;9174294;19;20018;-67
2022/08/31 08:26:07;;;;;;;5.55;1.20;;;18.20;60.90;;;;;;9175382;19;20014;-68
2022/08/31 08:29:40;;;;;;;3.30;1.00;;;18.30;60.80;;;;;;9173950;19;20010;-70
2022/08/31 08:32:49;;;;;;;3.45;1.17;;;18.60;60.80;;;;;;9171751;19;20026;-65
2022/08/31 08:35:59;;;;;;;4.05;1.48;;;18.80;60.70;;;;;;9176667;19;20015;-70
2022/08/31 08:39:07;;;;;;;3.35;1.13;;;19.00;60.50;;;;;;9170731;19;20015;-68
2022/08/31 08:42:16;;;;;;;1.67;1.02;;;19.30;60.40;;;;;;9173371;19;20018;-69
2022/08/31 08:45:22;;;;;;;2.75;1.00;;;19.50;60.20;;;;;;9171025;19;20356;-68
2022/08/31 08:48:29;;;;;;;4.53;1.10;;;19.70;60.10;;;;;;9171327;19;20061;-69
2022/08/31 08:51:40;;;;;;;2.60;1.13;;;19.90;59.90;;;;;;9177748;19;20026;-69
2022/08/31 08:54:49;;;;;;;3.58;0.95;;;20.20;59.70;;;;;;9174311;19;20038;-69
2022/08/31 08:57:55;;;;;;;7.15;1.38;;;20.40;59.50;;;;;;9168625;19;20018;-68
2022/08/31 09:01:00;;;;;;;5.28;1.88;;;20.60;59.40;;;;;;9175147;19;20056;-70
2022/08/31 09:04:19;;;;;;;5.40;1.90;;;20.90;59.30;;;;;;9177333;19;20019;-72
2022/08/31 09:07:58;;;;;;;3.05;1.30;;;21.10;58.90;;;;;;9169367;19;20015;-65
2022/08/31 09:11:16;;;;;;;5.32;1.20;;;21.30;58.60;;;;;;9180373;19;20022;-72
2022/08/31 09:14:37;;;;;;;2.33;1.10;;;21.50;58.60;;;;;;9180286;19;20492;-73
2022/08/31 09:17:52;;;;;;;6.07;1.27;;;21.60;58.30;;;;;;9179043;19;20082;-67
2022/08/31 09:21:20;;;;;;;4.78;0.90;;;21.80;58.20;;;;;;9183282;19;20007;-70
2022/08/31 09:24:32;;;;;;;3.45;1.00;;;22.00;58.00;;;;;;9182717;19;20017;-70
2022/08/31 09:27:55;;;;;;;6.97;1.45;;;22.10;57.80;;;;;;9179434;19;20033;-72
2022/08/31 09:31:01;;;;;;;1.77;0.70;;;22.20;57.60;;;;;;9178138;19;20029;-71
2022/08/31 09:34:12;;;;;;;8.20;1.33;;;22.40;57.60;;;;;;9183263;19;20019;-70
2022/08/31 09:37:21;;;;;;;4.72;1.13;;;22.50;57.40;;;;;;9180522;19;20021;-71
2022/08/31 09:40:39;;;;;;;3.97;1.35;;;22.60;57.30;;;;;;9182687;19;20028;-71
2022/08/31 09:43:44;;;;;;;4.00;1.13;;;22.70;57.10;;;;;;9181427;19;20368;-71
2022/08/31 09:46:53;;;;;;;5.57;1.20;;;22.80;57.00;;;;;;9180891;19;20018;-68
2022/08/31 09:49:59;;;;;;;2.83;0.80;;;23.00;56.90;;;;;;9178079;19;20014;-70
2022/08/31 09:56:35;;;;;;;1.77;1.08;;;23.30;56.70;;;;;;9184601;19;20010;-71
2022/08/31 09:59:43;;;;;;;2.30;0.90;;;23.40;56.30;;;;;;9179162;19;20022;-70
2022/08/31 10:02:58;;;;;;;1.30;1.00;;;23.50;56.20;;;;;;9181900;19;20027;-71
2022/08/31 10:06:44;;;;;;;3.97;1.10;;;23.70;55.90;;;;;;9180676;19;20019;-72
2022/08/31 10:09:54;;;;;;;3.50;0.90;;;23.80;55.60;;;;;;9181471;19;20014;-71
2022/08/31 10:13:10;;;;;;;3.85;1.27;;;23.90;55.70;;;;;;9185392;19;20018;-74
2022/08/31 10:16:24;;;;;;;1.83;0.88;;;24.00;55.50;;;;;;9180108;19;20026;-74
2022/08/31 10:19:43;;;;;;;4.22;0.73;;;24.20;55.40;;;;;;9177731;19;20025;-74
2022/08/31 10:22:52;;;;;;;2.97;0.80;;;24.30;55.10;;;;;;9177614;19;20014;-72
2022/08/31 10:26:03;;;;;;;2.72;0.95;;;24.40;55.50;;;;;;9178714;19;20015;-69
2022/08/31 10:29:19;;;;;;;6.03;1.00;;;24.40;54.60;;;;;;9179623;19;20018;-71
2022/08/31 10:32:37;;;;;;;5.25;1.00;;;24.50;54.40;;;;;;9180530;19;20018;-70
2022/08/31 10:35:51;;;;;;;5.03;1.10;;;24.50;54.40;;;;;;9181505;19;20126;-68
2022/08/31 10:38:56;;;;;;;1.73;0.82;;;24.50;54.20;;;;;;9179427;19;20014;-67
2022/08/31 10:42:05;;;;;;;1.23;1.08;;;24.40;54.20;;;;;;9179428;19;20007;-67
2022/08/31 10:45:21;;;;;;;3.78;1.08;;;24.40;54.10;;;;;;9180349;19;20038;-69
2022/08/31 10:48:28;;;;;;;3.65;1.15;;;24.50;54.00;;;;;;9180053;19;20026;-68
2022/08/31 10:51:40;;;;;;;1.52;0.70;;;24.50;53.90;;;;;;9182014;19;20019;-70
2022/08/31 10:54:50;;;;;;;5.40;0.90;;;24.60;53.70;;;;;;9179475;19;20030;-69
2022/08/31 10:58:03;;;;;;;2.58;0.80;;;24.60;53.50;;;;;;9178964;19;20026;-69
2022/08/31 11:01:18;;;;;;;4.10;1.17;;;24.80;53.50;;;;;;9182993;19;20018;-68
2022/08/31 11:04:41;;;;;;;4.20;0.73;;;24.90;53.40;;;;;;9178817;19;20043;-69
2022/08/31 11:07:56;;;;;;;1.95;1.00;;;25.10;53.10;;;;;;9174692;19;20483;-70
2022/08/31 11:11:04;;;;;;;2.72;0.88;;;25.20;53.20;;;;;;9171859;19;20047;-69
2022/08/31 11:14:32;;;;;;;2.40;1.08;;;25.30;53.10;;;;;;9172991;19;20017;-68
2022/08/31 11:17:56;;;;;;;6.95;1.33;;;25.40;52.70;;;;;;9173078;19;20446;-67
2022/08/31 11:21:18;;;;;;;12.00;1.05;;;25.50;52.60;;;;;;9170755;19;20025;-69
2022/08/31 11:24:59;;;;;;;3.08;1.10;;;25.70;52.60;;;;;;9169172;19;20018;-67
2022/08/31 11:28:08;;;;;;;2.50;0.95;;;25.80;52.30;;;;;;9174441;19;20478;-68
2022/08/31 11:31:22;;;;;;;5.05;0.82;;;25.90;52.30;;;;;;9171427;19;20015;-69
2022/08/31 11:34:46;;;;;;;0.82;0.60;;;25.90;52.20;;;;;;9173351;19;20018;-67
2022/08/31 11:37:54;;;;;;;4.80;0.93;;;25.90;52.10;;;;;;9171977;19;20015;-69
2022/08/31 11:41:04;;;;;;;5.82;1.05;;;26.00;52.00;;;;;;9173819;19;20464;-69
2022/08/31 11:44:14;;;;;;;4.40;0.95;;;26.00;51.90;;;;;;9173508;19;20018;-66
2022/08/31 11:47:36;;;;;;;2.78;0.80;;;26.10;51.70;;;;;;9172393;19;20030;-68
2022/08/31 11:51:05;;;;;;;1.23;0.60;;;26.10;51.30;;;;;;9170816;19;20116;-69
2022/08/31 11:54:40;;;;;;;1.65;0.70;;;26.20;51.30;;;;;;9175896;19;20022;-69
2022/08/31 11:58:10;;;;;;;3.22;1.08;;;26.30;52.00;;;;;;9173874;19;20656;-67
2022/08/31 12:01:41;;;;;;;1.10;0.90;;;26.30;51.00;;;;;;9167653;19;20114;-65
2022/08/31 12:05:01;;;;;;;2.10;0.80;;;26.40;50.90;;;;;;9171774;19;20026;-68
2022/08/31 12:08:10;;;;;;;4.50;1.00;;;26.40;50.70;;;;;;9171202;19;20490;-67
2022/08/31 12:11:28;;;;;;;1.42;0.63;;;26.50;51.00;;;;;;9174559;19;20014;-68
2022/08/31 12:14:46;;;;;;;4.20;0.70;;;26.50;50.60;;;;;;9171061;19;20086;-68
2022/08/31 12:18:16;;;;;;;1.70;0.65;;;26.50;50.50;;;;;;9172869;19;20110;-68
2022/08/31 12:24:58;;;;;;;2.28;0.88;;;26.70;50.50;;;;;;9167708;19;20027;-69
2022/08/31 12:28:16;;;;;;;2.63;0.80;;;26.80;50.20;;;;;;9170841;19;20018;-71
2022/08/31 12:31:21;;;;;;;2.65;1.08;;;26.80;50.00;;;;;;9169592;19;20037;-67
2022/08/31 12:34:26;;;;;;;0.80;0.70;;;26.80;50.10;;;;;;9170037;19;20026;-66
2022/08/31 12:37:34;;;;;;;0.80;0.52;;;26.80;49.90;;;;;;9170543;19;20022;-67
2022/08/31 12:40:45;;;;;;;1.95;0.70;;;26.80;49.70;;;;;;9171206;19;20018;-68
2022/08/31 12:43:53;;;;;;;0.70;0.50;;;26.80;49.50;;;;;;9174946;19;20011;-70
2022/08/31 12:47:05;;;;;;;5.78;0.90;;;26.80;49.50;;;;;;9180718;19;20558;-67
2022/08/31 12:50:18;;;;;;;3.72;0.88;;;26.80;49.30;;;;;;9181671;19;20014;-69
2022/08/31 12:53:54;;;;;;;1.13;0.60;;;26.80;49.20;;;;;;9175775;19;20022;-68
2022/08/31 12:57:07;;;;;;;7.55;0.70;;;26.80;49.00;;;;;;9179029;19;20018;-67
2022/08/31 13:00:24;;;;;;;4.18;0.88;;;26.80;49.20;;;;;;9176869;19;20058;-69
2022/08/31 13:03:30;;;;;;;2.45;0.68;;;26.80;49.00;;;;;;9177366;19;20471;-69
2022/08/31 13:06:39;;;;;;;6.05;0.80;;;26.80;49.00;;;;;;9176324;19;20022;-68
2022/08/31 13:09:44;;;;;;;2.10;0.65;;;26.80;48.90;;;;;;9177152;19;20081;-69
2022/08/31 13:12:51;;;;;;;5.72;0.80;;;26.80;48.80;;;;;;9181567;19;20484;-72
2022/08/31 13:16:06;;;;;;;2.75;1.00;;;26.80;48.70;;;;;;9178377;19;20018;-68
2022/08/31 13:19:24;;;;;;;3.10;0.77;;;26.80;48.40;;;;;;9187620;19;20471;-69
2022/08/31 13:22:32;;;;;;;2.25;0.75;;;26.80;48.40;;;;;;9188080;19;20085;-70
2022/08/31 13:25:37;;;;;;;4.57;0.65;;;26.80;48.50;;;;;;9187015;19;20022;-71
2022/08/31 13:28:43;;;;;;;1.95;0.80;;;26.80;48.50;;;;;;9187634;19;20030;-71
2022/08/31 13:31:53;;;;;;;6.57;0.90;;;26.80;48.30;;;;;;9185859;19;20475;-68
2022/08/31 13:35:03;;;;;;;1.13;0.50;;;26.80;48.00;;;;;;9184413;19;20085;-69
2022/08/31 13:38:12;;;;;;;2.85;1.08;;;26.80;48.00;;;;;;9187725;19;20025;-69
2022/08/31 13:41:26;;;;;;;1.98;0.82;;;26.80;47.90;;;;;;9183399;19;20775;-69
2022/08/31 13:44:36;;;;;;;1.40;0.77;;;26.70;47.60;;;;;;9186982;19;20029;-69
2022/08/31 13:47:53;;;;;;;2.50;0.70;;;26.70;47.80;;;;;;9188299;19;20003;-71
2022/08/31 13:51:06;;;;;;;4.25;0.60;;;26.60;47.50;;;;;;9186845;19;20018;-70
2022/08/31 13:54:16;;;;;;;0.50;0.47;;;26.50;47.60;;;;;;9187033;19;20376;-73
2022/08/31 13:57:24;;;;;;;3.53;0.70;;;26.50;47.60;;;;;;9183828;19;20007;-69
2022/08/31 14:00:37;;;;;;;3.75;1.00;;;26.40;47.50;;;;;;9185123;19;20023;-68
2022/08/31 14:03:56;;;;;;;3.53;0.60;;;26.40;47.40;;;;;;9185415;19;20475;-69
2022/08/31 14:07:02;;;;;;;3.30;0.82;;;26.40;47.20;;;;;;9186294;19;20487;-69
2022/08/31 14:10:18;;;;;;;1.30;0.75;;;26.40;47.40;;;;;;9182336;19;20355;-69
2022/08/31 14:13:24;;;;;;;4.05;0.60;;;26.40;47.10;;;;;;9182899;19;20018;-70
2022/08/31 14:16:33;;;;;;;0.88;0.77;;;26.30;47.10;;;;;;9184960;19;20014;-70
2022/08/31 14:19:42;;;;;;;1.55;0.75;;;26.30;47.00;;;;;;9180578;19;20039;-68
2022/08/31 14:22:48;;;;;;;2.40;0.70;;;26.30;47.00;;;;;;9174370;19;20018;-70
2022/08/31 14:25:54;;;;;;;1.27;0.77;;;26.20;46.80;;;;;;9169554;19;20011;-70
2022/08/31 14:29:02;;;;;;;7.00;1.25;;;26.20;46.80;;;;;;9175779;19;20356;-70
2022/08/31 14:32:08;;;;;;;2.35;0.60;;;26.10;46.80;;;;;;9175168;19;20015;-71
2022/08/31 14:35:16;;;;;;;2.67;0.85;;;26.10;46.70;;;;;;9175589;19;20388;-68
2022/08/31 14:38:23;;;;;;;1.10;0.57;;;26.00;46.60;;;;;;9175559;19;20052;-66
2022/08/31 14:41:33;;;;;;;1.25;0.60;;;26.00;46.60;;;;;;9175467;19;20022;-74
2022/08/31 14:44:41;;;;;;;2.38;0.82;;;26.00;46.50;;;;;;9181282;19;20033;-72
2022/08/31 14:47:50;;;;;;;1.48;0.57;;;26.00;46.60;;;;;;9181660;19;20037;-72
2022/08/31 14:50:58;;;;;;;2.05;0.73;;;26.00;46.60;;;;;;9181143;19;20010;-71
2022/08/31 14:54:04;;;;;;;1.23;0.60;;;26.00;46.50;;;;;;9181535;19;20022;-70
2022/08/31 14:57:13;;;;;;;1.90;0.98;;;26.00;46.50;;;;;;9182785;19;20027;-70
2022/08/31 15:00:20;;;;;;;2.50;0.75;;;25.90;46.40;;;;;;9183061;19;20025;-70
2022/08/31 15:03:26;;;;;;;2.35;0.60;;;25.90;46.30;;;;;;9179996;19;20014;-71
2022/08/31 15:06:35;;;;;;;1.30;0.60;;;25.90;46.30;;;;;;9178698;19;20361;-73
2022/08/31 15:09:41;;;;;;;2.65;1.48;;;25.80;46.10;;;;;;9174024;19;20412;-70
2022/08/31 15:12:47;;;;;;;2.25;1.13;;;25.80;46.20;;;;;;9179208;19;20074;-68
2022/08/31 15:15:53;;;;;;;2.17;0.70;;;25.80;46.30;;;;;;9173168;19;20025;-67
2022/08/31 15:19:00;;;;;;;1.30;0.65;;;25.70;46.20;;;;;;9180715;19;20018;-70
2022/08/31 15:22:09;;;;;;;1.67;0.73;;;25.70;46.10;;;;;;9175198;19;20018;-71
2022/08/31 15:25:15;;;;;;;4.13;0.68;;;25.70;46.00;;;;;;9171474;19;20018;-73
2022/08/31 15:28:20;;;;;;;3.13;0.68;;;25.60;46.00;;;;;;9170759;19;20048;-71
2022/08/31 15:31:27;;;;;;;2.78;0.80;;;25.50;46.00;;;;;;9175045;19;20022;-71
2022/08/31 15:34:34;;;;;;;1.23;0.73;;;25.50;46.00;;;;;;9177121;19;20027;-72
2022/08/31 15:37:44;;;;;;;0.98;0.85;;;25.50;46.00;;;;;;9177238;19;20472;-70
2022/08/31 15:40:48;;;;;;;0.60;0.50;;;25.40;45.90;;;;;;9170479;19;20463;-69
2022/08/31 15:43:54;;;;;;;2.30;0.60;;;25.40;46.00;;;;;;9175036;19;20018;-68
2022/08/31 15:50:19;;;;;;;1.10;0.40;;;25.30;45.90;;;;;;9178293;19;20018;-67
2022/08/31 15:53:29;;;;;;;1.05;0.70;;;25.30;46.00;;;;;;9178774;19;20575;-70
2022/08/31 15:56:39;;;;;;;2.58;0.73;;;25.30;45.90;;;;;;9174747;19;20048;-67
2022/08/31 15:59:44;;;;;;;0.80;0.60;;;25.20;46.50;;;;;;9177398;19;20479;-67
2022/08/31 16:02:53;;;;;;;1.65;0.55;;;25.20;45.90;;;;;;9174668;19;20017;-69
2022/08/31 16:05:59;;;;;;;1.30;0.50;;;25.10;45.80;;;;;;9175368;19;20037;-66
2022/08/31 16:09:08;;;;;;;0.75;0.60;;;25.10;45.90;;;;;;9164567;19;20357;-70
2022/08/31 16:12:13;;;;;;;3.92;0.60;;;25.10;45.80;;;;;;9174871;19;20018;-73
2022/08/31 16:15:19;;;;;;;1.15;0.73;;;25.10;45.90;;;;;;9173662;19;20026;-70
2022/08/31 16:18:29;;;;;;;2.53;0.80;;;25.00;45.80;;;;;;9173617;19;20029;-69
2022/08/31 16:21:38;;;;;;;2.70;1.20;;;25.00;45.80;;;;;;9174126;19;20015;-68
2022/08/31 16:24:47;;;;;;;5.15;0.80;;;25.00;45.90;;;;;;9173252;19;20018;-70
2022/08/31 16:27:54;;;;;;;6.10;0.52;;;24.90;45.80;;;;;;9169611;19;20018;-68
2022/08/31 16:30:59;;;;;;;1.75;0.88;;;24.90;45.90;;;;;;9169550;19;21356;-69
2022/08/31 16:34:04;;;;;;;2.78;0.95;;;24.80;45.90;;;;;;9171765;19;20022;-70
2022/08/31 16:37:10;;;;;;;1.70;0.90;;;24.80;45.90;;;;;;9171876;19;20019;-68
2022/08/31 16:40:18;;;;;;;0.85;0.68;;;24.70;45.80;;;;;;9177041;19;20023;-69
2022/08/31 16:43:23;;;;;;;8.80;1.52;;;24.60;45.80;;;;;;9177256;19;20090;-68
2022/08/31 16:46:29;;;;;;;3.60;0.98;;;24.60;45.90;;;;;;9179428;19;20025;-67
2022/08/31 16:49:45;;;;;;;4.10;0.90;;;24.50;45.90;;;;;;9177704;19;20647;-68
2022/08/31 16:52:49;;;;;;;6.93;1.02;;;24.40;45.90;;;;;;9179154;19;20047;-68